Adair Village, Oregon
Current Conditions -  °F | °C
As of 3:55 AM on Thursday 27 Nov 2014 (Local Time) from KCVO Reporting Station
Overcast Overcast  
Wind Chill: 52°   Ceiling: 6500
Heat Index: 52°   Visibility: 10mi
Dew Point: 48°   Wind: 6mph
Humidity: 88%   Direction: 250°WSW
Pressure: 30.01"   Gusts: NA
Location:  44.6364°N, 123.28°W
Report Text: KCVO 271155Z AUTO 25005KT 10SM BKN065 BKN095 OVC110 11/09 A3001 RMK AO1 10120 20110 57003
Loading
Personal Weather Stations






























Interactive Weather Map New forecast layout! Learn more

10-Day Weather Forecast

Advertisements
Track Severe Weather on mobile